sensor_id;sensor_type;location;lat;lon;timestamp;P1;durP1;ratioP1;P2;durP2;ratioP2
64520;SDS011;50896;46.714;17.322;2023-08-07T00:02:00;2.97;;;0.75;;
64520;SDS011;50896;46.714;17.322;2023-08-07T00:04:27;1.13;;;0.30;;
64520;SDS011;50896;46.714;17.322;2023-08-07T00:06:54;2.50;;;0.68;;
64520;SDS011;50896;46.714;17.322;2023-08-07T00:09:21;2.33;;;0.50;;
64520;SDS011;50896;46.714;17.322;2023-08-07T00:11:48;2.38;;;0.52;;
64520;SDS011;50896;46.714;17.322;2023-08-07T00:14:15;1.85;;;0.82;;
64520;SDS011;50896;46.714;17.322;2023-08-07T00:16:42;5.10;;;0.60;;
64520;SDS011;50896;46.714;17.322;2023-08-07T00:19:09;2.40;;;0.43;;
64520;SDS011;50896;46.714;17.322;2023-08-07T00:21:36;3.13;;;0.50;;
64520;SDS011;50896;46.714;17.322;2023-08-07T00:24:04;6.60;;;0.55;;
64520;SDS011;50896;46.714;17.322;2023-08-07T00:26:31;2.15;;;0.55;;
64520;SDS011;50896;46.714;17.322;2023-08-07T00:28:58;2.88;;;0.63;;
64520;SDS011;50896;46.714;17.322;2023-08-07T00:31:25;3.33;;;0.52;;
64520;SDS011;50896;46.714;17.322;2023-08-07T00:33:52;0.73;;;0.47;;
64520;SDS011;50896;46.714;17.322;2023-08-07T00:36:21;3.78;;;0.70;;
64520;SDS011;50896;46.714;17.322;2023-08-07T00:38:49;8.70;;;0.77;;
64520;SDS011;50896;46.714;17.322;2023-08-07T00:41:16;0.82;;;0.50;;
64520;SDS011;50896;46.714;17.322;2023-08-07T00:43:44;1.50;;;0.50;;
64520;SDS011;50896;46.714;17.322;2023-08-07T00:46:11;2.03;;;0.70;;
64520;SDS011;50896;46.714;17.322;2023-08-07T00:48:38;1.13;;;0.50;;
64520;SDS011;50896;46.714;17.322;2023-08-07T00:51:06;1.13;;;0.40;;
64520;SDS011;50896;46.714;17.322;2023-08-07T00:53:37;3.13;;;0.50;;
64520;SDS011;50896;46.714;17.322;2023-08-07T00:56:06;0.93;;;0.60;;
64520;SDS011;50896;46.714;17.322;2023-08-07T00:58:34;2.83;;;0.57;;
64520;SDS011;50896;46.714;17.322;2023-08-07T01:01:02;5.70;;;0.60;;
64520;SDS011;50896;46.714;17.322;2023-08-07T01:03:29;3.58;;;0.52;;
64520;SDS011;50896;46.714;17.322;2023-08-07T01:05:56;2.65;;;0.50;;
64520;SDS011;50896;46.714;17.322;2023-08-07T01:08:23;7.40;;;0.57;;
64520;SDS011;50896;46.714;17.322;2023-08-07T01:16:47;3.05;;;0.73;;
64520;SDS011;50896;46.714;17.322;2023-08-07T01:19:23;3.85;;;0.70;;
64520;SDS011;50896;46.714;17.322;2023-08-07T01:22:10;2.97;;;0.55;;
64520;SDS011;50896;46.714;17.322;2023-08-07T01:24:40;2.80;;;0.93;;
64520;SDS011;50896;46.714;17.322;2023-08-07T01:32:28;3.72;;;0.70;;
64520;SDS011;50896;46.714;17.322;2023-08-07T01:35:11;4.53;;;0.60;;
64520;SDS011;50896;46.714;17.322;2023-08-07T01:37:40;3.83;;;0.50;;
64520;SDS011;50896;46.714;17.322;2023-08-07T01:40:08;3.28;;;0.65;;
64520;SDS011;50896;46.714;17.322;2023-08-07T01:42:37;2.95;;;0.60;;
64520;SDS011;50896;46.714;17.322;2023-08-07T01:45:05;2.50;;;0.50;;
64520;SDS011;50896;46.714;17.322;2023-08-07T01:47:32;4.00;;;0.70;;
64520;SDS011;50896;46.714;17.322;2023-08-07T01:49:59;4.13;;;0.80;;
64520;SDS011;50896;46.714;17.322;2023-08-07T01:52:26;0.93;;;0.55;;
64520;SDS011;50896;46.714;17.322;2023-08-07T01:54:53;2.20;;;0.60;;
64520;SDS011;50896;46.714;17.322;2023-08-07T01:57:20;1.83;;;0.80;;
64520;SDS011;50896;46.714;17.322;2023-08-07T01:59:47;1.77;;;0.47;;
64520;SDS011;50896;46.714;17.322;2023-08-07T02:02:14;0.93;;;0.50;;
64520;SDS011;50896;46.714;17.322;2023-08-07T02:04:41;2.35;;;0.63;;
64520;SDS011;50896;46.714;17.322;2023-08-07T02:07:08;1.65;;;0.60;;
64520;SDS011;50896;46.714;17.322;2023-08-07T02:09:34;2.83;;;0.80;;
64520;SDS011;50896;46.714;17.322;2023-08-07T02:12:01;2.97;;;0.50;;
64520;SDS011;50896;46.714;17.322;2023-08-07T02:14:29;1.90;;;0.68;;
64520;SDS011;50896;46.714;17.322;2023-08-07T02:16:56;1.75;;;0.57;;
64520;SDS011;50896;46.714;17.322;2023-08-07T02:19:23;1.88;;;0.70;;
64520;SDS011;50896;46.714;17.322;2023-08-07T02:21:49;6.00;;;0.73;;
64520;SDS011;50896;46.714;17.322;2023-08-07T02:24:16;1.95;;;0.70;;
64520;SDS011;50896;46.714;17.322;2023-08-07T02:26:45;1.50;;;0.60;;
64520;SDS011;50896;46.714;17.322;2023-08-07T02:29:12;1.20;;;0.57;;
64520;SDS011;50896;46.714;17.322;2023-08-07T02:31:39;3.67;;;0.60;;
64520;SDS011;50896;46.714;17.322;2023-08-07T02:34:06;2.97;;;0.63;;
64520;SDS011;50896;46.714;17.322;2023-08-07T02:36:33;2.30;;;0.60;;
64520;SDS011;50896;46.714;17.322;2023-08-07T02:39:00;1.60;;;0.85;;
64520;SDS011;50896;46.714;17.322;2023-08-07T02:41:27;2.95;;;0.80;;
64520;SDS011;50896;46.714;17.322;2023-08-07T02:43:54;3.88;;;0.80;;
64520;SDS011;50896;46.714;17.322;2023-08-07T02:46:20;5.20;;;0.70;;
64520;SDS011;50896;46.714;17.322;2023-08-07T02:48:47;6.15;;;0.80;;
64520;SDS011;50896;46.714;17.322;2023-08-07T02:51:15;2.47;;;0.73;;
64520;SDS011;50896;46.714;17.322;2023-08-07T02:53:42;0.95;;;0.60;;
64520;SDS011;50896;46.714;17.322;2023-08-07T02:56:08;3.08;;;0.70;;
64520;SDS011;50896;46.714;17.322;2023-08-07T02:58:35;3.50;;;0.70;;
64520;SDS011;50896;46.714;17.322;2023-08-07T03:01:03;2.97;;;0.73;;
64520;SDS011;50896;46.714;17.322;2023-08-07T03:03:32;1.10;;;0.80;;
64520;SDS011;50896;46.714;17.322;2023-08-07T03:05:59;3.95;;;0.90;;
64520;SDS011;50896;46.714;17.322;2023-08-07T03:08:26;2.75;;;0.63;;
64520;SDS011;50896;46.714;17.322;2023-08-07T03:10:53;2.65;;;0.80;;
64520;SDS011;50896;46.714;17.322;2023-08-07T03:13:25;3.03;;;0.80;;
64520;SDS011;50896;46.714;17.322;2023-08-07T03:16:04;3.95;;;0.60;;
64520;SDS011;50896;46.714;17.322;2023-08-07T03:18:34;2.22;;;0.70;;
64520;SDS011;50896;46.714;17.322;2023-08-07T03:21:01;6.22;;;1.00;;
64520;SDS011;50896;46.714;17.322;2023-08-07T03:23:28;3.00;;;0.68;;
64520;SDS011;50896;46.714;17.322;2023-08-07T03:26:16;1.80;;;0.82;;
64520;SDS011;50896;46.714;17.322;2023-08-07T03:28:47;2.47;;;0.70;;
64520;SDS011;50896;46.714;17.322;2023-08-07T03:31:15;2.80;;;0.70;;
64520;SDS011;50896;46.714;17.322;2023-08-07T03:33:43;1.83;;;0.60;;
64520;SDS011;50896;46.714;17.322;2023-08-07T03:36:12;1.63;;;0.63;;
64520;SDS011;50896;46.714;17.322;2023-08-07T03:38:39;2.45;;;0.68;;
64520;SDS011;50896;46.714;17.322;2023-08-07T03:41:06;2.28;;;0.60;;
64520;SDS011;50896;46.714;17.322;2023-08-07T03:43:35;2.38;;;0.85;;
64520;SDS011;50896;46.714;17.322;2023-08-07T03:46:02;1.05;;;0.63;;
64520;SDS011;50896;46.714;17.322;2023-08-07T03:48:30;3.55;;;0.65;;
64520;SDS011;50896;46.714;17.322;2023-08-07T03:51:02;1.05;;;0.65;;
64520;SDS011;50896;46.714;17.322;2023-08-07T03:53:42;1.60;;;0.60;;
64520;SDS011;50896;46.714;17.322;2023-08-07T03:56:09;1.10;;;0.43;;
64520;SDS011;50896;46.714;17.322;2023-08-07T03:58:36;1.95;;;0.50;;
64520;SDS011;50896;46.714;17.322;2023-08-07T04:01:03;3.00;;;0.60;;
64520;SDS011;50896;46.714;17.322;2023-08-07T04:03:30;1.00;;;0.60;;
64520;SDS011;50896;46.714;17.322;2023-08-07T04:05:58;4.20;;;1.17;;
64520;SDS011;50896;46.714;17.322;2023-08-07T04:08:27;2.90;;;0.73;;
64520;SDS011;50896;46.714;17.322;2023-08-07T04:11:04;5.80;;;0.82;;
64520;SDS011;50896;46.714;17.322;2023-08-07T04:13:33;5.10;;;0.85;;
64520;SDS011;50896;46.714;17.322;2023-08-07T04:16:01;4.13;;;0.85;;
64520;SDS011;50896;46.714;17.322;2023-08-07T04:21:01;6.07;;;0.82;;
64520;SDS011;50896;46.714;17.322;2023-08-07T04:23:30;7.22;;;0.95;;
64520;SDS011;50896;46.714;17.322;2023-08-07T04:25:58;4.75;;;1.00;;
64520;SDS011;50896;46.714;17.322;2023-08-07T04:28:27;1.80;;;0.77;;
64520;SDS011;50896;46.714;17.322;2023-08-07T04:30:55;8.45;;;0.98;;
64520;SDS011;50896;46.714;17.322;2023-08-07T04:33:22;2.38;;;0.75;;
64520;SDS011;50896;46.714;17.322;2023-08-07T04:35:49;3.40;;;0.88;;
64520;SDS011;50896;46.714;17.322;2023-08-07T04:38:16;2.03;;;0.90;;
64520;SDS011;50896;46.714;17.322;2023-08-07T04:40:44;2.30;;;0.85;;
64520;SDS011;50896;46.714;17.322;2023-08-07T04:43:15;3.20;;;1.05;;
64520;SDS011;50896;46.714;17.322;2023-08-07T04:45:43;5.28;;;0.80;;
64520;SDS011;50896;46.714;17.322;2023-08-07T04:48:12;1.60;;;0.80;;
64520;SDS011;50896;46.714;17.322;2023-08-07T04:50:39;2.45;;;1.05;;
64520;SDS011;50896;46.714;17.322;2023-08-07T04:53:06;1.95;;;0.80;;
64520;SDS011;50896;46.714;17.322;2023-08-07T04:55:33;9.23;;;1.00;;
64520;SDS011;50896;46.714;17.322;2023-08-07T04:58:00;1.80;;;0.80;;
64520;SDS011;50896;46.714;17.322;2023-08-07T05:00:27;1.10;;;0.80;;
64520;SDS011;50896;46.714;17.322;2023-08-07T05:02:55;1.38;;;0.95;;
64520;SDS011;50896;46.714;17.322;2023-08-07T05:05:22;3.10;;;0.63;;
64520;SDS011;50896;46.714;17.322;2023-08-07T05:07:50;4.97;;;0.80;;
64520;SDS011;50896;46.714;17.322;2023-08-07T05:10:17;1.13;;;0.70;;
64520;SDS011;50896;46.714;17.322;2023-08-07T05:12:44;3.42;;;0.73;;
64520;SDS011;50896;46.714;17.322;2023-08-07T05:15:10;2.58;;;0.70;;
64520;SDS011;50896;46.714;17.322;2023-08-07T05:17:37;4.78;;;0.90;;
64520;SDS011;50896;46.714;17.322;2023-08-07T05:20:04;2.63;;;0.77;;
64520;SDS011;50896;46.714;17.322;2023-08-07T05:22:32;2.78;;;0.90;;
64520;SDS011;50896;46.714;17.322;2023-08-07T05:24:59;2.75;;;0.75;;
64520;SDS011;50896;46.714;17.322;2023-08-07T05:27:26;0.80;;;0.70;;
64520;SDS011;50896;46.714;17.322;2023-08-07T05:29:52;2.33;;;0.70;;
64520;SDS011;50896;46.714;17.322;2023-08-07T05:32:19;1.30;;;0.80;;
64520;SDS011;50896;46.714;17.322;2023-08-07T05:34:46;3.42;;;0.98;;
64520;SDS011;50896;46.714;17.322;2023-08-07T05:37:12;2.30;;;0.77;;
64520;SDS011;50896;46.714;17.322;2023-08-07T05:39:40;1.00;;;0.70;;
64520;SDS011;50896;46.714;17.322;2023-08-07T05:42:06;3.72;;;0.80;;
64520;SDS011;50896;46.714;17.322;2023-08-07T05:44:34;4.00;;;0.80;;
64520;SDS011;50896;46.714;17.322;2023-08-07T05:47:01;2.92;;;0.93;;
64520;SDS011;50896;46.714;17.322;2023-08-07T05:49:28;2.28;;;0.70;;
64520;SDS011;50896;46.714;17.322;2023-08-07T05:51:55;1.20;;;0.68;;
64520;SDS011;50896;46.714;17.322;2023-08-07T05:54:22;3.58;;;0.70;;
64520;SDS011;50896;46.714;17.322;2023-08-07T05:56:49;1.13;;;0.88;;
64520;SDS011;50896;46.714;17.322;2023-08-07T05:59:16;4.32;;;0.80;;
64520;SDS011;50896;46.714;17.322;2023-08-07T06:01:43;1.60;;;0.68;;
64520;SDS011;50896;46.714;17.322;2023-08-07T06:04:09;2.33;;;0.73;;
64520;SDS011;50896;46.714;17.322;2023-08-07T06:06:36;4.00;;;0.80;;
64520;SDS011;50896;46.714;17.322;2023-08-07T06:09:05;3.03;;;0.90;;
64520;SDS011;50896;46.714;17.322;2023-08-07T06:11:33;2.45;;;0.70;;
64520;SDS011;50896;46.714;17.322;2023-08-07T06:14:00;3.63;;;0.63;;
64520;SDS011;50896;46.714;17.322;2023-08-07T06:16:27;3.22;;;0.50;;
64520;SDS011;50896;46.714;17.322;2023-08-07T06:18:54;2.72;;;0.57;;
64520;SDS011;50896;46.714;17.322;2023-08-07T06:21:21;2.03;;;0.60;;
64520;SDS011;50896;46.714;17.322;2023-08-07T06:23:48;2.47;;;0.63;;
64520;SDS011;50896;46.714;17.322;2023-08-07T06:26:14;0.98;;;0.50;;
64520;SDS011;50896;46.714;17.322;2023-08-07T06:28:42;0.65;;;0.50;;
64520;SDS011;50896;46.714;17.322;2023-08-07T06:31:10;4.72;;;0.88;;
64520;SDS011;50896;46.714;17.322;2023-08-07T06:33:38;1.67;;;0.65;;
64520;SDS011;50896;46.714;17.322;2023-08-07T06:36:06;0.70;;;0.57;;
64520;SDS011;50896;46.714;17.322;2023-08-07T06:38:34;1.80;;;0.80;;
64520;SDS011;50896;46.714;17.322;2023-08-07T06:41:01;1.20;;;0.50;;
64520;SDS011;50896;46.714;17.322;2023-08-07T06:43:28;1.48;;;0.30;;
64520;SDS011;50896;46.714;17.322;2023-08-07T06:45:55;3.30;;;0.50;;
64520;SDS011;50896;46.714;17.322;2023-08-07T06:48:23;2.83;;;0.50;;
64520;SDS011;50896;46.714;17.322;2023-08-07T06:50:50;3.15;;;0.40;;
64520;SDS011;50896;46.714;17.322;2023-08-07T06:53:17;2.38;;;0.43;;
64520;SDS011;50896;46.714;17.322;2023-08-07T06:55:44;4.65;;;0.60;;
64520;SDS011;50896;46.714;17.322;2023-08-07T06:58:11;1.60;;;0.50;;
64520;SDS011;50896;46.714;17.322;2023-08-07T07:00:38;2.47;;;0.65;;
64520;SDS011;50896;46.714;17.322;2023-08-07T07:03:05;1.10;;;0.43;;
64520;SDS011;50896;46.714;17.322;2023-08-07T07:05:33;3.87;;;0.47;;
64520;SDS011;50896;46.714;17.322;2023-08-07T07:08:00;3.08;;;0.40;;
64520;SDS011;50896;46.714;17.322;2023-08-07T07:10:27;1.13;;;0.30;;
64520;SDS011;50896;46.714;17.322;2023-08-07T07:12:54;1.08;;;0.30;;
64520;SDS011;50896;46.714;17.322;2023-08-07T07:15:21;1.02;;;0.30;;
64520;SDS011;50896;46.714;17.322;2023-08-07T07:17:48;1.25;;;0.55;;
64520;SDS011;50896;46.714;17.322;2023-08-07T07:20:15;2.17;;;0.40;;
64520;SDS011;50896;46.714;17.322;2023-08-07T07:22:42;2.95;;;0.55;;
64520;SDS011;50896;46.714;17.322;2023-08-07T07:25:09;1.75;;;0.40;;
64520;SDS011;50896;46.714;17.322;2023-08-07T07:27:36;0.82;;;0.43;;
64520;SDS011;50896;46.714;17.322;2023-08-07T07:30:03;1.70;;;0.45;;
64520;SDS011;50896;46.714;17.322;2023-08-07T07:32:30;1.10;;;0.43;;
64520;SDS011;50896;46.714;17.322;2023-08-07T07:34:57;2.50;;;0.38;;
64520;SDS011;50896;46.714;17.322;2023-08-07T07:37:24;1.75;;;0.40;;
64520;SDS011;50896;46.714;17.322;2023-08-07T07:39:51;1.92;;;0.40;;
64520;SDS011;50896;46.714;17.322;2023-08-07T07:42:18;2.17;;;0.30;;
64520;SDS011;50896;46.714;17.322;2023-08-07T07:44:45;0.93;;;0.50;;
64520;SDS011;50896;46.714;17.322;2023-08-07T07:47:12;1.13;;;0.50;;
64520;SDS011;50896;46.714;17.322;2023-08-07T07:49:45;1.95;;;0.30;;
64520;SDS011;50896;46.714;17.322;2023-08-07T07:52:16;3.03;;;0.35;;
64520;SDS011;50896;46.714;17.322;2023-08-07T07:54:43;0.70;;;0.30;;
64520;SDS011;50896;46.714;17.322;2023-08-07T07:57:10;2.05;;;0.40;;
64520;SDS011;50896;46.714;17.322;2023-08-07T07:59:37;0.88;;;0.40;;
64520;SDS011;50896;46.714;17.322;2023-08-07T08:02:04;1.95;;;0.20;;
64520;SDS011;50896;46.714;17.322;2023-08-07T08:04:31;0.38;;;0.28;;
64520;SDS011;50896;46.714;17.322;2023-08-07T08:06:58;0.80;;;0.30;;
64520;SDS011;50896;46.714;17.322;2023-08-07T08:09:26;0.85;;;0.40;;
64520;SDS011;50896;46.714;17.322;2023-08-07T08:11:53;1.40;;;0.35;;
64520;SDS011;50896;46.714;17.322;2023-08-07T08:14:20;2.63;;;0.20;;
64520;SDS011;50896;46.714;17.322;2023-08-07T08:16:46;0.38;;;0.30;;
64520;SDS011;50896;46.714;17.322;2023-08-07T08:19:14;0.10;;;0.10;;
64520;SDS011;50896;46.714;17.322;2023-08-07T08:21:42;0.47;;;0.22;;
64520;SDS011;50896;46.714;17.322;2023-08-07T08:24:09;2.05;;;0.20;;
64520;SDS011;50896;46.714;17.322;2023-08-07T08:26:36;1.30;;;0.20;;
64520;SDS011;50896;46.714;17.322;2023-08-07T08:29:05;1.65;;;0.38;;
64520;SDS011;50896;46.714;17.322;2023-08-07T08:31:34;0.63;;;0.20;;
64520;SDS011;50896;46.714;17.322;2023-08-07T08:34:01;3.83;;;0.30;;
64520;SDS011;50896;46.714;17.322;2023-08-07T08:36:29;1.15;;;0.28;;
64520;SDS011;50896;46.714;17.322;2023-08-07T08:38:56;0.13;;;0.00;;
64520;SDS011;50896;46.714;17.322;2023-08-07T08:41:23;1.35;;;0.10;;
64520;SDS011;50896;46.714;17.322;2023-08-07T08:43:51;2.28;;;0.30;;
64520;SDS011;50896;46.714;17.322;2023-08-07T08:46:20;0.10;;;0.10;;
64520;SDS011;50896;46.714;17.322;2023-08-07T08:48:49;0.22;;;0.08;;
64520;SDS011;50896;46.714;17.322;2023-08-07T08:53:45;0.70;;;0.10;;
64520;SDS011;50896;46.714;17.322;2023-08-07T08:56:13;2.92;;;0.20;;
64520;SDS011;50896;46.714;17.322;2023-08-07T08:58:40;0.00;;;0.00;;
64520;SDS011;50896;46.714;17.322;2023-08-07T09:01:07;0.57;;;0.20;;
64520;SDS011;50896;46.714;17.322;2023-08-07T09:03:35;0.52;;;0.10;;
64520;SDS011;50896;46.714;17.322;2023-08-07T09:06:02;0.10;;;0.10;;
64520;SDS011;50896;46.714;17.322;2023-08-07T09:08:29;0.77;;;0.20;;
64520;SDS011;50896;46.714;17.322;2023-08-07T09:10:56;0.30;;;0.10;;
64520;SDS011;50896;46.714;17.322;2023-08-07T09:13:23;0.52;;;0.15;;
64520;SDS011;50896;46.714;17.322;2023-08-07T09:15:51;0.10;;;0.10;;
64520;SDS011;50896;46.714;17.322;2023-08-07T09:18:19;0.10;;;0.00;;
64520;SDS011;50896;46.714;17.322;2023-08-07T09:20:48;0.77;;;0.10;;
64520;SDS011;50896;46.714;17.322;2023-08-07T09:23:16;0.13;;;0.00;;
64520;SDS011;50896;46.714;17.322;2023-08-07T09:25:45;0.10;;;0.10;;
64520;SDS011;50896;46.714;17.322;2023-08-07T09:28:12;0.10;;;0.00;;
64520;SDS011;50896;46.714;17.322;2023-08-07T09:30:39;0.10;;;0.10;;
64520;SDS011;50896;46.714;17.322;2023-08-07T09:33:10;0.20;;;0.10;;
64520;SDS011;50896;46.714;17.322;2023-08-07T09:35:37;0.98;;;0.10;;
64520;SDS011;50896;46.714;17.322;2023-08-07T09:38:05;1.33;;;0.20;;
64520;SDS011;50896;46.714;17.322;2023-08-07T09:40:34;1.55;;;0.10;;
64520;SDS011;50896;46.714;17.322;2023-08-07T09:43:01;0.10;;;0.10;;
64520;SDS011;50896;46.714;17.322;2023-08-07T09:45:29;0.38;;;0.00;;
64520;SDS011;50896;46.714;17.322;2023-08-07T09:50:26;0.57;;;0.10;;
64520;SDS011;50896;46.714;17.322;2023-08-07T09:52:53;0.00;;;0.00;;
64520;SDS011;50896;46.714;17.322;2023-08-07T09:55:22;0.17;;;0.10;;
64520;SDS011;50896;46.714;17.322;2023-08-07T09:57:49;0.10;;;0.00;;
64520;SDS011;50896;46.714;17.322;2023-08-07T10:00:16;1.05;;;0.20;;
64520;SDS011;50896;46.714;17.322;2023-08-07T10:02:47;0.32;;;0.10;;
64520;SDS011;50896;46.714;17.322;2023-08-07T10:05:16;2.10;;;0.10;;
64520;SDS011;50896;46.714;17.322;2023-08-07T10:07:43;0.00;;;0.00;;
64520;SDS011;50896;46.714;17.322;2023-08-07T10:10:10;0.30;;;0.10;;
64520;SDS011;50896;46.714;17.322;2023-08-07T10:12:37;0.22;;;0.10;;
64520;SDS011;50896;46.714;17.322;2023-08-07T10:15:05;1.20;;;0.10;;
64520;SDS011;50896;46.714;17.322;2023-08-07T10:17:33;1.17;;;0.10;;
64520;SDS011;50896;46.714;17.322;2023-08-07T10:20:00;1.20;;;0.10;;
64520;SDS011;50896;46.714;17.322;2023-08-07T10:22:29;0.73;;;0.10;;
64520;SDS011;50896;46.714;17.322;2023-08-07T10:24:57;1.27;;;0.30;;
64520;SDS011;50896;46.714;17.322;2023-08-07T10:29:54;0.40;;;0.20;;
64520;SDS011;50896;46.714;17.322;2023-08-07T10:32:24;0.10;;;0.10;;
64520;SDS011;50896;46.714;17.322;2023-08-07T10:34:53;0.95;;;0.10;;
64520;SDS011;50896;46.714;17.322;2023-08-07T10:37:37;0.77;;;0.00;;
64520;SDS011;50896;46.714;17.322;2023-08-07T10:40:07;0.08;;;0.00;;
64520;SDS011;50896;46.714;17.322;2023-08-07T10:45:44;0.60;;;0.10;;
64520;SDS011;50896;46.714;17.322;2023-08-07T10:48:11;0.10;;;0.10;;
64520;SDS011;50896;46.714;17.322;2023-08-07T10:50:48;0.13;;;0.00;;
64520;SDS011;50896;46.714;17.322;2023-08-07T10:55:57;0.00;;;0.00;;
64520;SDS011;50896;46.714;17.322;2023-08-07T10:58:29;0.22;;;0.00;;
64520;SDS011;50896;46.714;17.322;2023-08-07T11:03:55;0.30;;;0.03;;
64520;SDS011;50896;46.714;17.322;2023-08-07T11:06:27;0.28;;;0.00;;
64520;SDS011;50896;46.714;17.322;2023-08-07T11:08:58;0.00;;;0.00;;
64520;SDS011;50896;46.714;17.322;2023-08-07T11:12:08;0.17;;;0.00;;
64520;SDS011;50896;46.714;17.322;2023-08-07T11:14:17;0.00;;;0.00;;
64520;SDS011;50896;46.714;17.322;2023-08-07T11:16:45;0.05;;;0.05;;
64520;SDS011;50896;46.714;17.322;2023-08-07T11:19:14;0.00;;;0.00;;
64520;SDS011;50896;46.714;17.322;2023-08-07T11:21:42;0.47;;;0.10;;
64520;SDS011;50896;46.714;17.322;2023-08-07T11:24:12;0.20;;;0.03;;
64520;SDS011;50896;46.714;17.322;2023-08-07T11:26:39;0.00;;;0.00;;
64520;SDS011;50896;46.714;17.322;2023-08-07T11:29:08;0.43;;;0.03;;
64520;SDS011;50896;46.714;17.322;2023-08-07T11:31:35;0.47;;;0.10;;
64520;SDS011;50896;46.714;17.322;2023-08-07T11:34:02;0.08;;;0.08;;
64520;SDS011;50896;46.714;17.322;2023-08-07T11:36:30;0.13;;;0.10;;
64520;SDS011;50896;46.714;17.322;2023-08-07T11:38:58;0.10;;;0.05;;
64520;SDS011;50896;46.714;17.322;2023-08-07T11:41:25;0.00;;;0.00;;
64520;SDS011;50896;46.714;17.322;2023-08-07T11:43:51;0.00;;;0.00;;
64520;SDS011;50896;46.714;17.322;2023-08-07T11:46:18;0.20;;;0.10;;
64520;SDS011;50896;46.714;17.322;2023-08-07T11:48:45;0.10;;;0.10;;
64520;SDS011;50896;46.714;17.322;2023-08-07T11:51:12;0.10;;;0.00;;
64520;SDS011;50896;46.714;17.322;2023-08-07T11:53:40;0.10;;;0.00;;
64520;SDS011;50896;46.714;17.322;2023-08-07T11:56:09;0.38;;;0.10;;
64520;SDS011;50896;46.714;17.322;2023-08-07T11:58:43;0.30;;;0.00;;
64520;SDS011;50896;46.714;17.322;2023-08-07T12:01:14;0.30;;;0.10;;
64520;SDS011;50896;46.714;17.322;2023-08-07T12:06:16;0.35;;;0.10;;
64520;SDS011;50896;46.714;17.322;2023-08-07T12:08:44;0.40;;;0.10;;
64520;SDS011;50896;46.714;17.322;2023-08-07T12:11:11;0.25;;;0.00;;
64520;SDS011;50896;46.714;17.322;2023-08-07T12:13:39;1.42;;;0.10;;
64520;SDS011;50896;46.714;17.322;2023-08-07T12:16:08;0.88;;;0.00;;
64520;SDS011;50896;46.714;17.322;2023-08-07T12:18:36;0.10;;;0.00;;
64520;SDS011;50896;46.714;17.322;2023-08-07T12:21:06;0.57;;;0.00;;
64520;SDS011;50896;46.714;17.322;2023-08-07T12:23:34;0.03;;;0.00;;
64520;SDS011;50896;46.714;17.322;2023-08-07T12:26:03;0.20;;;0.08;;
64520;SDS011;50896;46.714;17.322;2023-08-07T12:28:33;0.00;;;0.00;;
64520;SDS011;50896;46.714;17.322;2023-08-07T12:31:01;0.00;;;0.00;;
64520;SDS011;50896;46.714;17.322;2023-08-07T12:33:31;0.00;;;0.00;;
64520;SDS011;50896;46.714;17.322;2023-08-07T12:35:58;0.30;;;0.00;;
64520;SDS011;50896;46.714;17.322;2023-08-07T12:38:25;0.00;;;0.00;;
64520;SDS011;50896;46.714;17.322;2023-08-07T12:40:53;0.00;;;0.00;;
64520;SDS011;50896;46.714;17.322;2023-08-07T12:43:20;0.00;;;0.00;;
64520;SDS011;50896;46.714;17.322;2023-08-07T12:45:47;0.15;;;0.00;;
64520;SDS011;50896;46.714;17.322;2023-08-07T12:48:16;0.10;;;0.10;;
64520;SDS011;50896;46.714;17.322;2023-08-07T12:50:44;0.20;;;0.10;;
64520;SDS011;50896;46.714;17.322;2023-08-07T12:53:11;0.13;;;0.00;;
64520;SDS011;50896;46.714;17.322;2023-08-07T12:55:38;0.20;;;0.10;;
64520;SDS011;50896;46.714;17.322;2023-08-07T12:58:05;0.00;;;0.00;;
64520;SDS011;50896;46.714;17.322;2023-08-07T13:00:32;0.30;;;0.00;;
64520;SDS011;50896;46.714;17.322;2023-08-07T13:02:59;0.00;;;0.00;;
64520;SDS011;50896;46.714;17.322;2023-08-07T13:05:27;0.30;;;0.10;;
64520;SDS011;50896;46.714;17.322;2023-08-07T13:07:55;1.45;;;0.10;;
64520;SDS011;50896;46.714;17.322;2023-08-07T13:10:25;0.00;;;0.00;;
64520;SDS011;50896;46.714;17.322;2023-08-07T13:12:54;0.20;;;0.10;;
64520;SDS011;50896;46.714;17.322;2023-08-07T13:15:21;0.10;;;0.08;;
64520;SDS011;50896;46.714;17.322;2023-08-07T13:17:48;1.00;;;0.10;;
64520;SDS011;50896;46.714;17.322;2023-08-07T13:20:15;0.10;;;0.00;;
64520;SDS011;50896;46.714;17.322;2023-08-07T13:22:42;0.17;;;0.00;;
64520;SDS011;50896;46.714;17.322;2023-08-07T13:27:39;0.00;;;0.00;;
64520;SDS011;50896;46.714;17.322;2023-08-07T13:30:07;0.00;;;0.00;;
64520;SDS011;50896;46.714;17.322;2023-08-07T13:32:35;0.10;;;0.10;;
64520;SDS011;50896;46.714;17.322;2023-08-07T13:35:03;0.05;;;0.05;;
64520;SDS011;50896;46.714;17.322;2023-08-07T13:37:31;0.15;;;0.10;;
64520;SDS011;50896;46.714;17.322;2023-08-07T13:39:59;0.98;;;0.00;;
64520;SDS011;50896;46.714;17.322;2023-08-07T13:42:26;0.10;;;0.00;;
64520;SDS011;50896;46.714;17.322;2023-08-07T13:44:57;0.30;;;0.10;;
64520;SDS011;50896;46.714;17.322;2023-08-07T13:47:24;1.48;;;0.00;;
64520;SDS011;50896;46.714;17.322;2023-08-07T13:49:52;1.23;;;0.25;;
64520;SDS011;50896;46.714;17.322;2023-08-07T13:52:24;0.13;;;0.10;;
64520;SDS011;50896;46.714;17.322;2023-08-07T13:54:51;0.00;;;0.00;;
64520;SDS011;50896;46.714;17.322;2023-08-07T13:57:18;0.60;;;0.00;;
64520;SDS011;50896;46.714;17.322;2023-08-07T13:59:45;0.20;;;0.10;;
64520;SDS011;50896;46.714;17.322;2023-08-07T14:02:12;0.10;;;0.00;;
64520;SDS011;50896;46.714;17.322;2023-08-07T14:04:40;0.15;;;0.10;;
64520;SDS011;50896;46.714;17.322;2023-08-07T14:07:06;0.03;;;0.03;;
64520;SDS011;50896;46.714;17.322;2023-08-07T14:09:33;0.63;;;0.00;;
64520;SDS011;50896;46.714;17.322;2023-08-07T14:12:00;0.10;;;0.10;;
64520;SDS011;50896;46.714;17.322;2023-08-07T14:14:27;0.52;;;0.03;;
64520;SDS011;50896;46.714;17.322;2023-08-07T14:16:54;0.65;;;0.00;;
64520;SDS011;50896;46.714;17.322;2023-08-07T14:19:24;1.30;;;0.00;;
64520;SDS011;50896;46.714;17.322;2023-08-07T14:21:51;0.00;;;0.00;;
64520;SDS011;50896;46.714;17.322;2023-08-07T14:24:17;0.00;;;0.00;;
64520;SDS011;50896;46.714;17.322;2023-08-07T14:26:44;0.00;;;0.00;;
64520;SDS011;50896;46.714;17.322;2023-08-07T14:29:12;0.05;;;0.00;;
64520;SDS011;50896;46.714;17.322;2023-08-07T14:31:39;0.00;;;0.00;;
64520;SDS011;50896;46.714;17.322;2023-08-07T14:34:06;0.03;;;0.00;;
64520;SDS011;50896;46.714;17.322;2023-08-07T14:36:35;0.00;;;0.00;;
64520;SDS011;50896;46.714;17.322;2023-08-07T14:39:03;0.00;;;0.00;;
64520;SDS011;50896;46.714;17.322;2023-08-07T14:41:30;1.35;;;0.10;;
64520;SDS011;50896;46.714;17.322;2023-08-07T14:43:56;0.80;;;0.10;;
64520;SDS011;50896;46.714;17.322;2023-08-07T14:46:23;0.63;;;0.10;;
64520;SDS011;50896;46.714;17.322;2023-08-07T14:48:50;0.05;;;0.00;;
64520;SDS011;50896;46.714;17.322;2023-08-07T14:51:17;0.28;;;0.10;;
64520;SDS011;50896;46.714;17.322;2023-08-07T14:53:44;0.65;;;0.00;;
64520;SDS011;50896;46.714;17.322;2023-08-07T14:56:11;0.17;;;0.00;;
64520;SDS011;50896;46.714;17.322;2023-08-07T14:58:38;0.00;;;0.00;;
64520;SDS011;50896;46.714;17.322;2023-08-07T15:01:05;0.00;;;0.00;;
64520;SDS011;50896;46.714;17.322;2023-08-07T15:03:32;0.32;;;0.00;;
64520;SDS011;50896;46.714;17.322;2023-08-07T15:05:58;0.00;;;0.00;;
64520;SDS011;50896;46.714;17.322;2023-08-07T15:08:25;1.00;;;0.00;;
64520;SDS011;50896;46.714;17.322;2023-08-07T15:10:52;0.30;;;0.05;;
64520;SDS011;50896;46.714;17.322;2023-08-07T15:13:20;0.60;;;0.08;;